Terminal Aerodrome Forecast
Issued by NWS

Home | Current Version | Previous Version | Graphics & Text | Print | Product List | Glossary On
Versions: 1 2 3 4 5 6 7 8 9 10 11 12 13 14 15 16 17 18 19 20 21 22 23 24 25
000
FTUS43 KFGF 221200 AAA
TAFBJI
TAF AMD
KBJI 221210Z 2212/2312 17006KT P6SM BKN200
      TEMPO 2212/2214 1SM BR VV007
     FM230300 13006KT P6SM BKN025=

USA.gov is the U.S. government's official web portal to all federal, state and local government web resources and services.